sensor_id;sensor_type;location;lat;lon;timestamp;P1;durP1;ratioP1;P2;durP2;ratioP2
27728;SDS011;15126;42.186;24.340;2024-02-26T00:04:08;37.10;;;18.25;;
27728;SDS011;15126;42.186;24.340;2024-02-26T00:06:34;35.35;;;17.83;;
27728;SDS011;15126;42.186;24.340;2024-02-26T00:11:27;36.88;;;16.98;;
27728;SDS011;15126;42.186;24.340;2024-02-26T00:16:18;21.92;;;11.60;;
27728;SDS011;15126;42.186;24.340;2024-02-26T00:18:43;32.03;;;12.40;;
27728;SDS011;15126;42.186;24.340;2024-02-26T00:23:34;19.15;;;11.57;;
27728;SDS011;15126;42.186;24.340;2024-02-26T00:28:25;19.45;;;9.90;;
27728;SDS011;15126;42.186;24.340;2024-02-26T00:30:52;24.02;;;10.55;;
27728;SDS011;15126;42.186;24.340;2024-02-26T00:33:21;18.25;;;9.35;;
27728;SDS011;15126;42.186;24.340;2024-02-26T00:35:47;14.35;;;9.15;;
27728;SDS011;15126;42.186;24.340;2024-02-26T00:38:13;17.02;;;7.57;;
27728;SDS011;15126;42.186;24.340;2024-02-26T00:40:39;18.20;;;9.20;;
27728;SDS011;15126;42.186;24.340;2024-02-26T00:43:05;20.52;;;8.63;;
27728;SDS011;15126;42.186;24.340;2024-02-26T00:45:31;16.13;;;9.10;;
27728;SDS011;15126;42.186;24.340;2024-02-26T00:50:22;12.88;;;7.88;;
27728;SDS011;15126;42.186;24.340;2024-02-26T00:55:13;24.33;;;10.52;;
27728;SDS011;15126;42.186;24.340;2024-02-26T01:00:06;20.38;;;11.63;;
27728;SDS011;15126;42.186;24.340;2024-02-26T01:02:34;22.73;;;13.07;;
27728;SDS011;15126;42.186;24.340;2024-02-26T01:07:25;25.42;;;14.27;;
27728;SDS011;15126;42.186;24.340;2024-02-26T01:12:15;25.63;;;14.02;;
27728;SDS011;15126;42.186;24.340;2024-02-26T01:14:41;24.70;;;14.43;;
27728;SDS011;15126;42.186;24.340;2024-02-26T01:19:32;27.40;;;13.10;;
27728;SDS011;15126;42.186;24.340;2024-02-26T01:24:22;28.30;;;14.20;;
27728;SDS011;15126;42.186;24.340;2024-02-26T01:29:13;26.77;;;13.40;;
27728;SDS011;15126;42.186;24.340;2024-02-26T01:34:04;26.02;;;14.88;;
27728;SDS011;15126;42.186;24.340;2024-02-26T01:38:54;30.95;;;13.77;;
27728;SDS011;15126;42.186;24.340;2024-02-26T01:41:20;27.27;;;12.85;;
27728;SDS011;15126;42.186;24.340;2024-02-26T01:46:14;28.10;;;14.25;;
27728;SDS011;15126;42.186;24.340;2024-02-26T01:48:42;23.10;;;13.60;;
27728;SDS011;15126;42.186;24.340;2024-02-26T01:51:09;25.55;;;13.32;;
27728;SDS011;15126;42.186;24.340;2024-02-26T01:53:37;21.95;;;13.73;;
27728;SDS011;15126;42.186;24.340;2024-02-26T01:56:03;23.40;;;13.55;;
27728;SDS011;15126;42.186;24.340;2024-02-26T02:00:55;26.45;;;14.15;;
27728;SDS011;15126;42.186;24.340;2024-02-26T02:03:22;24.02;;;14.02;;
27728;SDS011;15126;42.186;24.340;2024-02-26T02:05:48;28.80;;;15.90;;
27728;SDS011;15126;42.186;24.340;2024-02-26T02:08:13;24.80;;;14.35;;
27728;SDS011;15126;42.186;24.340;2024-02-26T02:10:39;23.17;;;13.18;;
27728;SDS011;15126;42.186;24.340;2024-02-26T02:13:07;22.33;;;13.07;;
27728;SDS011;15126;42.186;24.340;2024-02-26T02:15:32;22.80;;;13.48;;
27728;SDS011;15126;42.186;24.340;2024-02-26T02:17:58;22.80;;;14.02;;
27728;SDS011;15126;42.186;24.340;2024-02-26T02:20:31;22.70;;;12.45;;
27728;SDS011;15126;42.186;24.340;2024-02-26T02:22:58;27.85;;;13.73;;
27728;SDS011;15126;42.186;24.340;2024-02-26T02:25:23;26.63;;;14.77;;
27728;SDS011;15126;42.186;24.340;2024-02-26T02:30:15;24.17;;;14.55;;
27728;SDS011;15126;42.186;24.340;2024-02-26T02:32:41;24.83;;;14.30;;
27728;SDS011;15126;42.186;24.340;2024-02-26T02:35:07;25.92;;;14.85;;
27728;SDS011;15126;42.186;24.340;2024-02-26T02:37:33;22.27;;;13.77;;
27728;SDS011;15126;42.186;24.340;2024-02-26T02:39:59;26.38;;;13.95;;
27728;SDS011;15126;42.186;24.340;2024-02-26T02:42:25;23.95;;;14.40;;
27728;SDS011;15126;42.186;24.340;2024-02-26T02:44:51;27.15;;;13.60;;
27728;SDS011;15126;42.186;24.340;2024-02-26T02:47:16;27.55;;;14.80;;
27728;SDS011;15126;42.186;24.340;2024-02-26T02:49:42;26.27;;;14.90;;
27728;SDS011;15126;42.186;24.340;2024-02-26T02:54:33;25.27;;;13.80;;
27728;SDS011;15126;42.186;24.340;2024-02-26T02:59:23;23.00;;;12.48;;
27728;SDS011;15126;42.186;24.340;2024-02-26T03:01:49;25.98;;;13.93;;
27728;SDS011;15126;42.186;24.340;2024-02-26T03:04:14;21.50;;;13.35;;
27728;SDS011;15126;42.186;24.340;2024-02-26T03:06:40;22.77;;;13.60;;
27728;SDS011;15126;42.186;24.340;2024-02-26T03:09:05;28.25;;;14.57;;
27728;SDS011;15126;42.186;24.340;2024-02-26T03:11:31;25.48;;;13.52;;
27728;SDS011;15126;42.186;24.340;2024-02-26T03:13:56;31.08;;;14.48;;
27728;SDS011;15126;42.186;24.340;2024-02-26T03:18:47;28.10;;;14.88;;
27728;SDS011;15126;42.186;24.340;2024-02-26T03:23:38;27.77;;;14.52;;
27728;SDS011;15126;42.186;24.340;2024-02-26T03:28:29;28.58;;;13.80;;
27728;SDS011;15126;42.186;24.340;2024-02-26T03:30:56;31.75;;;15.35;;
27728;SDS011;15126;42.186;24.340;2024-02-26T03:35:46;33.58;;;14.77;;
27728;SDS011;15126;42.186;24.340;2024-02-26T03:40:38;28.40;;;15.68;;
27728;SDS011;15126;42.186;24.340;2024-02-26T03:43:03;29.45;;;14.68;;
27728;SDS011;15126;42.186;24.340;2024-02-26T03:45:31;25.77;;;15.13;;
27728;SDS011;15126;42.186;24.340;2024-02-26T03:50:22;28.80;;;14.15;;
27728;SDS011;15126;42.186;24.340;2024-02-26T03:52:47;27.17;;;14.38;;
27728;SDS011;15126;42.186;24.340;2024-02-26T03:57:38;32.17;;;13.40;;
27728;SDS011;15126;42.186;24.340;2024-02-26T04:02:29;26.15;;;12.70;;
27728;SDS011;15126;42.186;24.340;2024-02-26T04:07:20;24.98;;;13.93;;
27728;SDS011;15126;42.186;24.340;2024-02-26T04:12:11;26.40;;;14.23;;
27728;SDS011;15126;42.186;24.340;2024-02-26T04:17:02;24.02;;;12.65;;
27728;SDS011;15126;42.186;24.340;2024-02-26T04:19:28;25.90;;;13.93;;
27728;SDS011;15126;42.186;24.340;2024-02-26T04:24:19;24.75;;;12.48;;
27728;SDS011;15126;42.186;24.340;2024-02-26T04:29:10;24.38;;;11.80;;
27728;SDS011;15126;42.186;24.340;2024-02-26T04:38:52;22.50;;;11.70;;
27728;SDS011;15126;42.186;24.340;2024-02-26T04:41:23;28.67;;;15.57;;
27728;SDS011;15126;42.186;24.340;2024-02-26T04:43:52;30.40;;;13.90;;
27728;SDS011;15126;42.186;24.340;2024-02-26T04:46:17;30.35;;;13.52;;
27728;SDS011;15126;42.186;24.340;2024-02-26T04:48:43;27.10;;;13.82;;
27728;SDS011;15126;42.186;24.340;2024-02-26T04:51:10;24.67;;;13.15;;
27728;SDS011;15126;42.186;24.340;2024-02-26T04:56:01;27.65;;;13.38;;
27728;SDS011;15126;42.186;24.340;2024-02-26T05:00:55;29.00;;;13.30;;
27728;SDS011;15126;42.186;24.340;2024-02-26T05:05:46;34.65;;;13.00;;
27728;SDS011;15126;42.186;24.340;2024-02-26T05:10:44;21.98;;;11.73;;
27728;SDS011;15126;42.186;24.340;2024-02-26T05:13:10;24.33;;;12.13;;
27728;SDS011;15126;42.186;24.340;2024-02-26T05:18:10;24.42;;;12.32;;
27728;SDS011;15126;42.186;24.340;2024-02-26T05:20:35;22.58;;;11.40;;
27728;SDS011;15126;42.186;24.340;2024-02-26T05:23:03;21.10;;;12.13;;
27728;SDS011;15126;42.186;24.340;2024-02-26T05:25:31;25.38;;;12.43;;
27728;SDS011;15126;42.186;24.340;2024-02-26T05:30:22;22.13;;;11.85;;
27728;SDS011;15126;42.186;24.340;2024-02-26T05:35:13;22.77;;;12.30;;
27728;SDS011;15126;42.186;24.340;2024-02-26T05:37:40;26.30;;;13.77;;
27728;SDS011;15126;42.186;24.340;2024-02-26T05:42:31;20.83;;;12.10;;
27728;SDS011;15126;42.186;24.340;2024-02-26T05:47:22;20.95;;;11.43;;
27728;SDS011;15126;42.186;24.340;2024-02-26T05:52:13;23.20;;;11.93;;
27728;SDS011;15126;42.186;24.340;2024-02-26T05:54:39;23.73;;;11.48;;
27728;SDS011;15126;42.186;24.340;2024-02-26T05:59:30;22.98;;;12.45;;
27728;SDS011;15126;42.186;24.340;2024-02-26T06:01:58;22.38;;;12.40;;
27728;SDS011;15126;42.186;24.340;2024-02-26T06:06:49;19.25;;;10.68;;
27728;SDS011;15126;42.186;24.340;2024-02-26T06:11:42;25.35;;;12.18;;
27728;SDS011;15126;42.186;24.340;2024-02-26T06:14:08;23.10;;;11.57;;
27728;SDS011;15126;42.186;24.340;2024-02-26T06:16:37;23.10;;;11.75;;
27728;SDS011;15126;42.186;24.340;2024-02-26T06:21:28;32.83;;;17.38;;
27728;SDS011;15126;42.186;24.340;2024-02-26T06:26:19;24.58;;;14.57;;
27728;SDS011;15126;42.186;24.340;2024-02-26T06:28:47;32.33;;;17.60;;
27728;SDS011;15126;42.186;24.340;2024-02-26T06:33:38;29.45;;;15.90;;
27728;SDS011;15126;42.186;24.340;2024-02-26T06:38:29;27.08;;;13.23;;
27728;SDS011;15126;42.186;24.340;2024-02-26T06:43:20;22.50;;;12.07;;
27728;SDS011;15126;42.186;24.340;2024-02-26T06:48:11;25.30;;;13.30;;
27728;SDS011;15126;42.186;24.340;2024-02-26T06:53:02;26.05;;;12.52;;
27728;SDS011;15126;42.186;24.340;2024-02-26T06:57:53;28.35;;;13.25;;
27728;SDS011;15126;42.186;24.340;2024-02-26T07:02:44;23.55;;;12.57;;
27728;SDS011;15126;42.186;24.340;2024-02-26T07:05:09;34.40;;;16.30;;
27728;SDS011;15126;42.186;24.340;2024-02-26T07:07:35;34.85;;;16.30;;
27728;SDS011;15126;42.186;24.340;2024-02-26T07:12:29;28.30;;;14.52;;
27728;SDS011;15126;42.186;24.340;2024-02-26T07:14:55;28.58;;;13.77;;
27728;SDS011;15126;42.186;24.340;2024-02-26T07:17:20;25.70;;;14.30;;
27728;SDS011;15126;42.186;24.340;2024-02-26T07:22:11;27.70;;;14.95;;
27728;SDS011;15126;42.186;24.340;2024-02-26T07:24:37;25.90;;;15.52;;
27728;SDS011;15126;42.186;24.340;2024-02-26T07:27:05;30.85;;;16.85;;
27728;SDS011;15126;42.186;24.340;2024-02-26T07:29:31;32.10;;;15.57;;
27728;SDS011;15126;42.186;24.340;2024-02-26T07:34:25;25.05;;;13.57;;
27728;SDS011;15126;42.186;24.340;2024-02-26T07:36:57;23.20;;;12.82;;
27728;SDS011;15126;42.186;24.340;2024-02-26T07:39:22;21.25;;;13.55;;
27728;SDS011;15126;42.186;24.340;2024-02-26T07:41:48;22.52;;;13.60;;
27728;SDS011;15126;42.186;24.340;2024-02-26T07:44:17;19.20;;;12.25;;
27728;SDS011;15126;42.186;24.340;2024-02-26T07:46:42;25.10;;;12.43;;
27728;SDS011;15126;42.186;24.340;2024-02-26T07:49:13;21.25;;;12.68;;
27728;SDS011;15126;42.186;24.340;2024-02-26T07:51:42;20.92;;;12.73;;
27728;SDS011;15126;42.186;24.340;2024-02-26T07:54:07;20.85;;;13.60;;
27728;SDS011;15126;42.186;24.340;2024-02-26T07:56:33;19.30;;;12.23;;
27728;SDS011;15126;42.186;24.340;2024-02-26T07:58:58;26.85;;;13.95;;
27728;SDS011;15126;42.186;24.340;2024-02-26T08:01:24;22.15;;;13.50;;
27728;SDS011;15126;42.186;24.340;2024-02-26T08:03:51;26.27;;;13.52;;
27728;SDS011;15126;42.186;24.340;2024-02-26T08:06:20;21.48;;;13.20;;
27728;SDS011;15126;42.186;24.340;2024-02-26T08:08:46;24.80;;;15.05;;
27728;SDS011;15126;42.186;24.340;2024-02-26T08:11:13;35.20;;;19.02;;
27728;SDS011;15126;42.186;24.340;2024-02-26T08:13:40;32.72;;;17.83;;
27728;SDS011;15126;42.186;24.340;2024-02-26T08:16:05;24.85;;;15.23;;
27728;SDS011;15126;42.186;24.340;2024-02-26T08:18:31;29.27;;;17.20;;
27728;SDS011;15126;42.186;24.340;2024-02-26T08:20:57;35.38;;;17.58;;
27728;SDS011;15126;42.186;24.340;2024-02-26T08:23:22;34.03;;;18.13;;
27728;SDS011;15126;42.186;24.340;2024-02-26T08:25:48;35.17;;;19.95;;
27728;SDS011;15126;42.186;24.340;2024-02-26T08:28:14;36.20;;;21.48;;
27728;SDS011;15126;42.186;24.340;2024-02-26T08:30:43;39.40;;;20.25;;
27728;SDS011;15126;42.186;24.340;2024-02-26T08:33:09;36.00;;;18.23;;
27728;SDS011;15126;42.186;24.340;2024-02-26T08:35:35;26.63;;;16.98;;
27728;SDS011;15126;42.186;24.340;2024-02-26T08:38:01;32.97;;;16.95;;
27728;SDS011;15126;42.186;24.340;2024-02-26T08:40:28;31.13;;;17.42;;
27728;SDS011;15126;42.186;24.340;2024-02-26T08:42:53;34.45;;;21.33;;
27728;SDS011;15126;42.186;24.340;2024-02-26T08:45:19;38.65;;;22.65;;
27728;SDS011;15126;42.186;24.340;2024-02-26T08:47:47;34.55;;;22.65;;
27728;SDS011;15126;42.186;24.340;2024-02-26T08:50:13;38.95;;;21.30;;
27728;SDS011;15126;42.186;24.340;2024-02-26T08:52:39;33.47;;;21.25;;
27728;SDS011;15126;42.186;24.340;2024-02-26T08:55:07;35.67;;;17.83;;
27728;SDS011;15126;42.186;24.340;2024-02-26T08:57:34;32.78;;;16.40;;
27728;SDS011;15126;42.186;24.340;2024-02-26T09:00:00;34.20;;;19.05;;
27728;SDS011;15126;42.186;24.340;2024-02-26T09:02:26;33.55;;;18.33;;
27728;SDS011;15126;42.186;24.340;2024-02-26T09:04:52;30.38;;;17.48;;
27728;SDS011;15126;42.186;24.340;2024-02-26T09:07:20;34.45;;;18.08;;
27728;SDS011;15126;42.186;24.340;2024-02-26T09:09:46;31.70;;;18.23;;
27728;SDS011;15126;42.186;24.340;2024-02-26T09:12:12;33.20;;;17.50;;
27728;SDS011;15126;42.186;24.340;2024-02-26T09:14:38;29.50;;;16.27;;
27728;SDS011;15126;42.186;24.340;2024-02-26T09:17:06;34.15;;;16.15;;
27728;SDS011;15126;42.186;24.340;2024-02-26T09:19:32;27.02;;;15.88;;
27728;SDS011;15126;42.186;24.340;2024-02-26T09:21:58;31.95;;;15.63;;
27728;SDS011;15126;42.186;24.340;2024-02-26T09:24:24;22.92;;;14.52;;
27728;SDS011;15126;42.186;24.340;2024-02-26T09:26:52;24.55;;;13.73;;
27728;SDS011;15126;42.186;24.340;2024-02-26T09:29:17;35.45;;;17.73;;
27728;SDS011;15126;42.186;24.340;2024-02-26T09:31:43;23.38;;;14.05;;
27728;SDS011;15126;42.186;24.340;2024-02-26T09:34:12;25.02;;;13.30;;
27728;SDS011;15126;42.186;24.340;2024-02-26T09:36:38;20.17;;;10.82;;
27728;SDS011;15126;42.186;24.340;2024-02-26T09:39:03;22.35;;;11.73;;
27728;SDS011;15126;42.186;24.340;2024-02-26T09:41:29;25.33;;;12.93;;
27728;SDS011;15126;42.186;24.340;2024-02-26T09:43:58;23.17;;;14.50;;
27728;SDS011;15126;42.186;24.340;2024-02-26T09:48:53;23.05;;;12.45;;
27728;SDS011;15126;42.186;24.340;2024-02-26T09:51:21;22.60;;;12.35;;
27728;SDS011;15126;42.186;24.340;2024-02-26T09:53:51;21.73;;;11.98;;
27728;SDS011;15126;42.186;24.340;2024-02-26T09:56:17;21.52;;;12.75;;
27728;SDS011;15126;42.186;24.340;2024-02-26T09:58:43;20.92;;;12.13;;
27728;SDS011;15126;42.186;24.340;2024-02-26T10:01:14;21.23;;;11.82;;
27728;SDS011;15126;42.186;24.340;2024-02-26T10:03:42;22.35;;;13.55;;
27728;SDS011;15126;42.186;24.340;2024-02-26T10:06:10;19.33;;;11.60;;
27728;SDS011;15126;42.186;24.340;2024-02-26T10:08:36;23.70;;;11.15;;
27728;SDS011;15126;42.186;24.340;2024-02-26T10:11:07;25.98;;;12.20;;
27728;SDS011;15126;42.186;24.340;2024-02-26T10:13:35;20.77;;;12.43;;
27728;SDS011;15126;42.186;24.340;2024-02-26T10:16:01;21.58;;;13.43;;
27728;SDS011;15126;42.186;24.340;2024-02-26T10:18:52;28.88;;;16.42;;
27728;SDS011;15126;42.186;24.340;2024-02-26T10:21:29;21.25;;;10.85;;
27728;SDS011;15126;42.186;24.340;2024-02-26T10:23:54;18.50;;;11.65;;
27728;SDS011;15126;42.186;24.340;2024-02-26T10:26:20;23.42;;;11.63;;
27728;SDS011;15126;42.186;24.340;2024-02-26T10:28:45;22.75;;;13.57;;
27728;SDS011;15126;42.186;24.340;2024-02-26T10:31:11;23.25;;;12.93;;
27728;SDS011;15126;42.186;24.340;2024-02-26T10:33:39;21.63;;;12.57;;
27728;SDS011;15126;42.186;24.340;2024-02-26T10:36:06;26.20;;;13.95;;
27728;SDS011;15126;42.186;24.340;2024-02-26T10:38:33;26.08;;;13.98;;
27728;SDS011;15126;42.186;24.340;2024-02-26T10:41:01;25.58;;;13.55;;
27728;SDS011;15126;42.186;24.340;2024-02-26T10:43:28;24.70;;;13.00;;
27728;SDS011;15126;42.186;24.340;2024-02-26T10:45:56;23.67;;;13.77;;
27728;SDS011;15126;42.186;24.340;2024-02-26T10:48:22;27.88;;;15.77;;
27728;SDS011;15126;42.186;24.340;2024-02-26T10:50:48;28.77;;;16.65;;
27728;SDS011;15126;42.186;24.340;2024-02-26T10:53:17;27.35;;;15.13;;
27728;SDS011;15126;42.186;24.340;2024-02-26T10:56:06;32.63;;;18.95;;
27728;SDS011;15126;42.186;24.340;2024-02-26T10:58:31;22.50;;;12.77;;
27728;SDS011;15126;42.186;24.340;2024-02-26T11:00:58;25.45;;;13.77;;
27728;SDS011;15126;42.186;24.340;2024-02-26T11:03:24;23.95;;;12.93;;
27728;SDS011;15126;42.186;24.340;2024-02-26T11:05:50;25.42;;;13.77;;
27728;SDS011;15126;42.186;24.340;2024-02-26T11:08:19;35.65;;;18.98;;
27728;SDS011;15126;42.186;24.340;2024-02-26T11:10:50;25.50;;;14.77;;
27728;SDS011;15126;42.186;24.340;2024-02-26T11:13:19;19.23;;;11.68;;
27728;SDS011;15126;42.186;24.340;2024-02-26T11:15:48;23.42;;;11.60;;
27728;SDS011;15126;42.186;24.340;2024-02-26T11:18:15;26.38;;;13.10;;
27728;SDS011;15126;42.186;24.340;2024-02-26T11:20:41;24.20;;;13.05;;
27728;SDS011;15126;42.186;24.340;2024-02-26T11:23:08;21.42;;;12.60;;
27728;SDS011;15126;42.186;24.340;2024-02-26T11:25:36;21.30;;;10.88;;
27728;SDS011;15126;42.186;24.340;2024-02-26T11:28:05;19.08;;;10.63;;
27728;SDS011;15126;42.186;24.340;2024-02-26T11:30:35;18.50;;;9.68;;
27728;SDS011;15126;42.186;24.340;2024-02-26T11:33:04;17.40;;;10.13;;
27728;SDS011;15126;42.186;24.340;2024-02-26T11:35:33;21.00;;;12.75;;
27728;SDS011;15126;42.186;24.340;2024-02-26T11:38:01;17.77;;;11.45;;
27728;SDS011;15126;42.186;24.340;2024-02-26T11:40:27;16.70;;;10.13;;
27728;SDS011;15126;42.186;24.340;2024-02-26T11:42:52;19.50;;;11.70;;
27728;SDS011;15126;42.186;24.340;2024-02-26T11:48:12;26.98;;;12.88;;
27728;SDS011;15126;42.186;24.340;2024-02-26T11:50:41;21.52;;;12.77;;
27728;SDS011;15126;42.186;24.340;2024-02-26T11:53:19;25.45;;;14.23;;
27728;SDS011;15126;42.186;24.340;2024-02-26T11:56:34;34.80;;;14.25;;
27728;SDS011;15126;42.186;24.340;2024-02-26T11:58:53;19.30;;;11.93;;
27728;SDS011;15126;42.186;24.340;2024-02-26T12:04:17;18.05;;;10.40;;
27728;SDS011;15126;42.186;24.340;2024-02-26T12:06:50;26.60;;;11.27;;
27728;SDS011;15126;42.186;24.340;2024-02-26T12:12:02;21.50;;;10.48;;
27728;SDS011;15126;42.186;24.340;2024-02-26T12:14:29;16.40;;;9.73;;
27728;SDS011;15126;42.186;24.340;2024-02-26T12:17:00;22.15;;;13.05;;
27728;SDS011;15126;42.186;24.340;2024-02-26T12:19:26;20.50;;;11.45;;
27728;SDS011;15126;42.186;24.340;2024-02-26T12:21:52;20.40;;;9.75;;
27728;SDS011;15126;42.186;24.340;2024-02-26T12:24:22;14.68;;;9.13;;
27728;SDS011;15126;42.186;24.340;2024-02-26T12:26:48;15.05;;;9.23;;
27728;SDS011;15126;42.186;24.340;2024-02-26T12:29:14;16.80;;;9.00;;
27728;SDS011;15126;42.186;24.340;2024-02-26T12:31:39;16.02;;;7.78;;
27728;SDS011;15126;42.186;24.340;2024-02-26T12:34:07;17.77;;;9.02;;
27728;SDS011;15126;42.186;24.340;2024-02-26T12:36:34;10.82;;;7.25;;
27728;SDS011;15126;42.186;24.340;2024-02-26T12:39:03;13.15;;;7.70;;
27728;SDS011;15126;42.186;24.340;2024-02-26T12:41:33;12.18;;;7.15;;
27728;SDS011;15126;42.186;24.340;2024-02-26T12:43:59;9.77;;;6.50;;
27728;SDS011;15126;42.186;24.340;2024-02-26T12:46:25;11.55;;;6.80;;
27728;SDS011;15126;42.186;24.340;2024-02-26T12:48:50;12.43;;;6.35;;
27728;SDS011;15126;42.186;24.340;2024-02-26T12:51:16;12.00;;;6.93;;
27728;SDS011;15126;42.186;24.340;2024-02-26T12:53:45;12.25;;;6.28;;
27728;SDS011;15126;42.186;24.340;2024-02-26T12:56:11;11.05;;;5.90;;
27728;SDS011;15126;42.186;24.340;2024-02-26T12:58:39;11.73;;;6.50;;
27728;SDS011;15126;42.186;24.340;2024-02-26T13:01:06;13.43;;;6.22;;
27728;SDS011;15126;42.186;24.340;2024-02-26T13:03:38;12.73;;;6.50;;
27728;SDS011;15126;42.186;24.340;2024-02-26T13:06:04;11.57;;;5.20;;
27728;SDS011;15126;42.186;24.340;2024-02-26T13:08:31;14.32;;;6.90;;
27728;SDS011;15126;42.186;24.340;2024-02-26T13:10:58;9.07;;;5.97;;
27728;SDS011;15126;42.186;24.340;2024-02-26T13:13:24;11.30;;;6.03;;
27728;SDS011;15126;42.186;24.340;2024-02-26T13:15:50;11.55;;;4.93;;
27728;SDS011;15126;42.186;24.340;2024-02-26T13:18:28;9.68;;;5.90;;
27728;SDS011;15126;42.186;24.340;2024-02-26T13:21:06;9.10;;;5.88;;
27728;SDS011;15126;42.186;24.340;2024-02-26T13:23:33;9.80;;;5.65;;
27728;SDS011;15126;42.186;24.340;2024-02-26T13:25:58;10.52;;;6.60;;
27728;SDS011;15126;42.186;24.340;2024-02-26T13:28:24;12.70;;;7.47;;
27728;SDS011;15126;42.186;24.340;2024-02-26T13:30:52;11.07;;;6.38;;
27728;SDS011;15126;42.186;24.340;2024-02-26T13:33:25;14.43;;;6.70;;
27728;SDS011;15126;42.186;24.340;2024-02-26T13:35:51;14.20;;;6.75;;
27728;SDS011;15126;42.186;24.340;2024-02-26T13:38:17;11.55;;;6.43;;
27728;SDS011;15126;42.186;24.340;2024-02-26T13:40:43;10.60;;;6.38;;
27728;SDS011;15126;42.186;24.340;2024-02-26T13:43:09;13.52;;;7.05;;
27728;SDS011;15126;42.186;24.340;2024-02-26T13:45:35;13.18;;;6.90;;
27728;SDS011;15126;42.186;24.340;2024-02-26T13:48:06;12.07;;;6.75;;
27728;SDS011;15126;42.186;24.340;2024-02-26T13:50:35;12.63;;;6.82;;
27728;SDS011;15126;42.186;24.340;2024-02-26T13:53:03;12.07;;;7.03;;
27728;SDS011;15126;42.186;24.340;2024-02-26T13:55:29;9.55;;;6.53;;
27728;SDS011;15126;42.186;24.340;2024-02-26T13:57:57;11.60;;;6.82;;
27728;SDS011;15126;42.186;24.340;2024-02-26T14:00:23;12.70;;;7.55;;
27728;SDS011;15126;42.186;24.340;2024-02-26T14:02:54;13.32;;;6.50;;
27728;SDS011;15126;42.186;24.340;2024-02-26T14:05:19;10.50;;;6.75;;
27728;SDS011;15126;42.186;24.340;2024-02-26T14:07:45;12.38;;;6.32;;
27728;SDS011;15126;42.186;24.340;2024-02-26T14:10:13;14.20;;;6.68;;
27728;SDS011;15126;42.186;24.340;2024-02-26T14:12:39;12.32;;;6.22;;
27728;SDS011;15126;42.186;24.340;2024-02-26T14:15:07;12.23;;;6.68;;
27728;SDS011;15126;42.186;24.340;2024-02-26T14:17:35;16.75;;;7.50;;
27728;SDS011;15126;42.186;24.340;2024-02-26T14:20:03;13.23;;;7.05;;
27728;SDS011;15126;42.186;24.340;2024-02-26T14:22:29;14.10;;;8.05;;
27728;SDS011;15126;42.186;24.340;2024-02-26T14:24:58;10.68;;;7.18;;
27728;SDS011;15126;42.186;24.340;2024-02-26T14:27:24;13.55;;;6.90;;
27728;SDS011;15126;42.186;24.340;2024-02-26T14:29:49;13.52;;;7.82;;
27728;SDS011;15126;42.186;24.340;2024-02-26T14:32:15;12.68;;;7.00;;
27728;SDS011;15126;42.186;24.340;2024-02-26T14:34:43;11.98;;;6.57;;
27728;SDS011;15126;42.186;24.340;2024-02-26T14:37:09;12.80;;;7.13;;
27728;SDS011;15126;42.186;24.340;2024-02-26T14:39:34;14.52;;;7.68;;
27728;SDS011;15126;42.186;24.340;2024-02-26T14:42:01;12.88;;;7.30;;
27728;SDS011;15126;42.186;24.340;2024-02-26T14:44:27;11.45;;;7.30;;
27728;SDS011;15126;42.186;24.340;2024-02-26T14:46:52;12.60;;;7.25;;
27728;SDS011;15126;42.186;24.340;2024-02-26T14:49:18;11.82;;;8.23;;
27728;SDS011;15126;42.186;24.340;2024-02-26T14:51:44;14.75;;;7.97;;
27728;SDS011;15126;42.186;24.340;2024-02-26T14:54:13;16.30;;;7.43;;
27728;SDS011;15126;42.186;24.340;2024-02-26T14:56:39;11.77;;;7.38;;
27728;SDS011;15126;42.186;24.340;2024-02-26T14:59:05;16.48;;;8.00;;
27728;SDS011;15126;42.186;24.340;2024-02-26T15:01:31;12.82;;;7.75;;
27728;SDS011;15126;42.186;24.340;2024-02-26T15:03:57;13.88;;;7.85;;
27728;SDS011;15126;42.186;24.340;2024-02-26T15:06:22;11.75;;;7.53;;
27728;SDS011;15126;42.186;24.340;2024-02-26T15:08:48;14.30;;;8.52;;
27728;SDS011;15126;42.186;24.340;2024-02-26T15:11:14;13.70;;;8.43;;
27728;SDS011;15126;42.186;24.340;2024-02-26T15:13:43;13.77;;;8.93;;
27728;SDS011;15126;42.186;24.340;2024-02-26T15:16:18;11.75;;;7.82;;
27728;SDS011;15126;42.186;24.340;2024-02-26T15:18:45;11.98;;;7.40;;
27728;SDS011;15126;42.186;24.340;2024-02-26T15:21:11;13.98;;;7.88;;
27728;SDS011;15126;42.186;24.340;2024-02-26T15:23:43;15.77;;;8.32;;
27728;SDS011;15126;42.186;24.340;2024-02-26T15:26:11;13.68;;;7.38;;
27728;SDS011;15126;42.186;24.340;2024-02-26T15:28:37;18.10;;;8.55;;
27728;SDS011;15126;42.186;24.340;2024-02-26T15:31:03;13.27;;;7.45;;
27728;SDS011;15126;42.186;24.340;2024-02-26T15:33:29;20.00;;;11.98;;
27728;SDS011;15126;42.186;24.340;2024-02-26T15:35:54;19.33;;;10.45;;
27728;SDS011;15126;42.186;24.340;2024-02-26T15:38:20;20.80;;;9.98;;
27728;SDS011;15126;42.186;24.340;2024-02-26T15:40:45;31.08;;;16.10;;
27728;SDS011;15126;42.186;24.340;2024-02-26T15:43:12;23.60;;;13.25;;
27728;SDS011;15126;42.186;24.340;2024-02-26T15:45:38;24.45;;;12.82;;
27728;SDS011;15126;42.186;24.340;2024-02-26T15:48:03;19.00;;;9.98;;
27728;SDS011;15126;42.186;24.340;2024-02-26T15:50:32;21.50;;;11.63;;
27728;SDS011;15126;42.186;24.340;2024-02-26T15:52:57;21.80;;;12.10;;
27728;SDS011;15126;42.186;24.340;2024-02-26T15:55:26;20.52;;;11.15;;
27728;SDS011;15126;42.186;24.340;2024-02-26T15:57:51;15.93;;;10.27;;
27728;SDS011;15126;42.186;24.340;2024-02-26T16:00:17;20.70;;;12.13;;
27728;SDS011;15126;42.186;24.340;2024-02-26T16:02:43;19.23;;;11.68;;
27728;SDS011;15126;42.186;24.340;2024-02-26T16:05:11;22.52;;;11.07;;
27728;SDS011;15126;42.186;24.340;2024-02-26T16:07:48;21.52;;;10.13;;
27728;SDS011;15126;42.186;24.340;2024-02-26T16:10:16;18.52;;;9.45;;
27728;SDS011;15126;42.186;24.340;2024-02-26T16:12:54;16.58;;;8.90;;
27728;SDS011;15126;42.186;24.340;2024-02-26T16:15:22;18.65;;;9.88;;
27728;SDS011;15126;42.186;24.340;2024-02-26T16:17:48;17.58;;;10.13;;
27728;SDS011;15126;42.186;24.340;2024-02-26T16:20:17;19.45;;;9.80;;
27728;SDS011;15126;42.186;24.340;2024-02-26T16:22:47;19.48;;;9.52;;
27728;SDS011;15126;42.186;24.340;2024-02-26T16:25:13;18.58;;;9.18;;
27728;SDS011;15126;42.186;24.340;2024-02-26T16:27:39;17.38;;;9.85;;
27728;SDS011;15126;42.186;24.340;2024-02-26T16:30:08;42.75;;;19.17;;
27728;SDS011;15126;42.186;24.340;2024-02-26T16:32:35;38.72;;;17.33;;
27728;SDS011;15126;42.186;24.340;2024-02-26T16:35:07;25.73;;;12.27;;
27728;SDS011;15126;42.186;24.340;2024-02-26T16:37:36;27.00;;;12.85;;
27728;SDS011;15126;42.186;24.340;2024-02-26T16:40:07;19.17;;;11.32;;
27728;SDS011;15126;42.186;24.340;2024-02-26T16:42:37;29.42;;;13.93;;
27728;SDS011;15126;42.186;24.340;2024-02-26T16:45:05;25.27;;;11.93;;
27728;SDS011;15126;42.186;24.340;2024-02-26T16:47:31;22.58;;;12.52;;
27728;SDS011;15126;42.186;24.340;2024-02-26T16:49:58;30.00;;;14.27;;
27728;SDS011;15126;42.186;24.340;2024-02-26T16:52:35;33.63;;;15.65;;